CYGE

Golden Airport

Golden, British Columbia, Canada
METAR CYGE 220000Z 04004KT 300V080 20SM VCSH SCT055 BKN080 09/M01 A3004 RMK SC3AC4 CVCTV CLD EMBD SH E-S LAST STFD OBS/NEXT 221200Z SLP191
Observed Flight Rules
Apr-22 @ 00:00 UTC (7 hours ago) Visual Flight Rules
Wind Visibility Clouds
40° at 4 knots 20 miles
  • Scattered at 5,500' AGL
  • Broken at 8,000' AGL
Temperatures Readings
Current 9°C / 48°F
Dewpoint -1°C / 30°F
Humidity 50%
Altimeter 30.04" Hg
Pressure 1019.1 hPa
Elevation 785
METAR CYGE 220000Z 04004KT 300V080 20SM VCSH SCT055 BKN080 09/M01 A3004 RMK SC3AC4 CVCTV CLD EMBD SH E-S LAST STFD OBS/NEXT 221200Z SLP191
Observed Flight Rules
Apr-22 @ 00:00 UTC
(7 hours ago)
VFR
Wind Visibility
40° at 4 knots 20 miles
Clouds
  • Scattered at 5,500' AGL
  • Broken at 8,000' AGL
Temperature Dewpoint
9°C / 48°F -1°C / 30°F
Humidity Altimeter Pressure
50% 30.04" Hg 1019.1 hPa